Time;durP1;ratioP1;P1;durP2;ratioP2;P2;SDS_P1;SDS_P2;PMS_P1;PMS_P2;Temp;Humidity;BMP_temperature;BMP_pressure;BME280_temperature;BME280_humidity;BME280_pressure;Samples;Min_cycle;Max_cycle;Signal;HPM_P1;HPM_P2
2024/02/10 00:01:44;;;;;;;7.25;4.00;;;;;;;12.13;38.86;94165.56;5047218;28;20060;-79
2024/02/10 00:04:10;;;;;;;7.63;4.10;;;;;;;12.06;39.11;94169.41;5048370;28;20112;-79
2024/02/10 00:06:39;;;;;;;5.50;3.38;;;;;;;12.13;38.52;94177.34;5046920;28;20112;-77
2024/02/10 00:09:07;;;;;;;14.93;6.00;;;;;;;12.15;39.33;94190.63;5047691;28;20036;-79
2024/02/10 00:11:33;;;;;;;15.40;6.53;;;;;;;11.90;39.77;94170.53;5046225;28;20025;-78
2024/02/10 00:13:59;;;;;;;10.77;6.43;;;;;;;11.91;40.01;94190.56;5047442;28;20058;-78
2024/02/10 00:16:28;;;;;;;9.35;5.55;;;;;;;11.82;40.13;94177.59;5047595;28;20025;-78
2024/02/10 00:18:57;;;;;;;10.90;4.10;;;;;;;11.85;39.19;94176.66;5047076;28;20510;-79
2024/02/10 00:21:25;;;;;;;7.90;3.10;;;;;;;11.94;38.95;94178.63;5046286;28;20028;-77
2024/02/10 00:23:51;;;;;;;9.57;4.38;;;;;;;11.95;38.85;94186.44;5048067;28;20028;-79
2024/02/10 00:26:21;;;;;;;7.03;3.33;;;;;;;12.07;38.60;94189.44;5048431;28;20036;-80
2024/02/10 00:28:50;;;;;;;6.65;4.38;;;;;;;12.09;38.82;94198.78;5047571;28;20024;-78
2024/02/10 00:31:15;;;;;;;8.02;4.68;;;;;;;12.05;39.19;94198.19;5047169;28;20086;-79
2024/02/10 00:33:46;;;;;;;9.77;4.53;;;;;;;12.03;39.25;94197.88;5045933;28;20021;-77
2024/02/10 00:36:12;;;;;;;6.55;3.65;;;;;;;12.01;39.29;94192.06;5046762;28;20102;-78
2024/02/10 00:38:40;;;;;;;10.60;3.90;;;;;;;12.01;38.94;94183.03;5028664;28;20495;-78
2024/02/10 00:41:06;;;;;;;5.05;3.05;;;;;;;12.11;38.69;94179.81;5046101;28;20033;-78
2024/02/10 00:43:32;;;;;;;7.40;3.50;;;;;;;12.13;38.40;94187.59;5046566;28;20087;-79
2024/02/10 00:45:59;;;;;;;7.15;3.55;;;;;;;12.15;38.70;94174.09;5045950;28;20033;-79
2024/02/10 00:48:26;;;;;;;6.03;2.72;;;;;;;12.20;38.32;94173.47;5046816;28;20025;-78
2024/02/10 00:50:52;;;;;;;7.30;3.67;;;;;;;12.21;38.51;94175.00;5047086;28;20041;-79
2024/02/10 00:53:19;;;;;;;6.18;2.80;;;;;;;12.26;38.08;94179.13;5046314;28;20033;-79
2024/02/10 00:55:45;;;;;;;4.90;3.13;;;;;;;12.36;38.04;94180.63;5047176;28;20044;-79
2024/02/10 00:58:11;;;;;;;5.95;3.67;;;;;;;12.23;38.10;94175.31;5046351;28;20540;-78
2024/02/10 01:00:36;;;;;;;6.38;3.08;;;;;;;12.25;38.33;94180.34;5047470;28;20035;-78
2024/02/10 01:03:06;;;;;;;6.35;3.22;;;;;;;12.28;38.02;94182.94;5046997;28;20098;-79
2024/02/10 01:05:31;;;;;;;5.18;2.95;;;;;;;12.10;38.37;94159.00;5048051;28;20021;-80
2024/02/10 01:07:59;;;;;;;7.22;3.58;;;;;;;12.22;38.28;94176.56;5028684;28;20025;-79
2024/02/10 01:10:24;;;;;;;5.78;3.42;;;;;;;12.19;38.44;94161.69;5046036;28;20438;-79
2024/02/10 01:12:50;;;;;;;9.65;4.95;;;;;;;12.20;39.10;94145.91;5045238;28;20102;-78
2024/02/10 01:15:16;;;;;;;11.75;7.20;;;;;;;12.04;39.74;94146.28;5029245;28;20482;-79
2024/02/10 01:17:46;;;;;;;14.50;7.40;;;;;;;11.89;40.40;94155.22;5045432;28;20485;-77
2024/02/10 01:20:12;;;;;;;13.27;8.05;;;;;;;11.65;41.23;94155.13;5045577;28;20602;-79
2024/02/10 01:22:41;;;;;;;15.55;7.60;;;;;;;11.51;41.53;94160.50;5046121;28;20029;-79
2024/02/10 01:25:07;;;;;;;12.73;8.23;;;;;;;11.45;41.71;94160.34;5046385;28;20044;-79
2024/02/10 01:27:32;;;;;;;15.35;8.90;;;;;;;11.33;42.21;94159.28;5045818;28;20029;-79
2024/02/10 01:30:01;;;;;;;19.23;9.65;;;;;;;11.28;42.18;94161.91;5046580;28;20035;-79
2024/02/10 01:32:26;;;;;;;17.40;10.27;;;;;;;11.22;42.46;94170.00;5045530;28;20104;-77
2024/02/10 01:34:53;;;;;;;19.45;9.85;;;;;;;11.13;42.44;94175.53;5046675;28;20437;-77
2024/02/10 01:37:19;;;;;;;17.25;9.85;;;;;;;11.04;42.93;94176.28;5046396;28;20083;-78
2024/02/10 01:39:53;;;;;;;20.75;10.75;;;;;;;10.86;43.08;94179.78;5045507;28;20033;-79
2024/02/10 01:42:20;;;;;;;18.00;10.23;;;;;;;10.78;43.39;94180.50;5044790;28;20081;-79
2024/02/10 01:44:45;;;;;;;19.67;9.93;;;;;;;10.79;43.38;94191.06;5045257;28;20033;-79
2024/02/10 01:47:14;;;;;;;18.35;10.10;;;;;;;10.62;43.66;94187.84;5044643;28;20021;-79
2024/02/10 01:49:43;;;;;;;16.30;10.05;;;;;;;10.56;43.97;94191.66;5046457;28;20077;-79
2024/02/10 01:52:10;;;;;;;19.30;10.20;;;;;;;10.48;44.12;94193.13;5045901;28;20033;-78
2024/02/10 01:54:36;;;;;;;19.88;9.35;;;;;;;10.43;44.21;94190.97;5044767;28;20040;-78
2024/02/10 01:57:04;;;;;;;16.23;9.23;;;;;;;10.43;44.27;94186.25;5045600;28;20467;-80
2024/02/10 01:59:35;;;;;;;17.65;8.98;;;;;;;10.31;44.45;94160.41;5045734;28;20115;-78
2024/02/10 02:02:03;;;;;;;16.10;9.77;;;;;;;10.29;44.53;94165.63;5046681;28;20029;-78
2024/02/10 02:04:35;;;;;;;14.32;9.30;;;;;;;10.22;44.57;94154.13;5045534;28;20108;-79
2024/02/10 02:07:03;;;;;;;13.67;9.30;;;;;;;10.26;44.50;94149.25;5029205;28;20043;-77
2024/02/10 02:09:29;;;;;;;17.25;8.93;;;;;;;10.21;44.76;94141.63;5044649;28;20040;-79
2024/02/10 02:11:57;;;;;;;14.55;8.05;;;;;;;10.22;44.69;94127.41;5044612;28;20029;-77
2024/02/10 02:14:23;;;;;;;12.68;7.57;;;;;;;10.18;44.73;94132.28;5046628;28;20025;-79
2024/02/10 02:16:48;;;;;;;10.77;6.15;;;;;;;10.36;44.12;94115.88;5045306;28;20021;-77
2024/02/10 02:19:14;;;;;;;10.70;5.20;;;;;;;10.39;43.77;94107.97;5045067;28;20013;-77
2024/02/10 02:21:42;;;;;;;6.38;3.88;;;;;;;10.47;43.39;94104.44;5043726;28;20032;-78
2024/02/10 02:24:07;;;;;;;6.63;3.63;;;;;;;10.55;43.23;94113.16;5044587;28;20523;-78
2024/02/10 02:26:32;;;;;;;9.10;3.90;;;;;;;10.67;43.63;94112.25;5043882;28;20044;-78
2024/02/10 02:28:58;;;;;;;7.45;4.50;;;;;;;10.58;43.70;94113.00;5046122;28;20559;-79
2024/02/10 02:31:23;;;;;;;9.63;5.57;;;;;;;10.70;43.88;94108.59;5046102;28;20044;-79
2024/02/10 02:33:48;;;;;;;11.93;6.97;;;;;;;10.69;44.05;94111.81;5027007;28;20029;-79
2024/02/10 02:36:18;;;;;;;20.52;11.65;;;;;;;10.71;44.00;94110.09;5046351;28;20116;-79
2024/02/10 02:38:44;;;;;;;20.10;15.95;;;;;;;10.77;44.03;94116.53;5044877;28;20048;-79
2024/02/10 02:41:10;;;;;;;19.55;15.15;;;;;;;10.75;44.04;94124.47;5045953;28;20052;-78
2024/02/10 02:43:36;;;;;;;21.77;15.38;;;;;;;10.78;44.10;94128.28;5043714;28;20056;-79
2024/02/10 02:46:03;;;;;;;18.98;15.18;;;;;;;10.81;44.16;94125.41;5043945;28;20044;-79
2024/02/10 02:48:28;;;;;;;18.13;14.38;;;;;;;10.83;44.39;94131.19;5045661;28;20048;-79
2024/02/10 02:50:55;;;;;;;26.02;14.82;;;;;;;10.74;44.33;94127.69;5044857;28;20049;-78
2024/02/10 02:53:22;;;;;;;16.50;12.90;;;;;;;10.79;44.22;94138.84;5046076;28;20112;-79
2024/02/10 02:55:48;;;;;;;15.35;10.43;;;;;;;10.79;43.98;94138.84;5026837;28;20032;-78
2024/02/10 02:58:13;;;;;;;17.48;11.23;;;;;;;10.79;43.94;94147.09;5027964;28;20020;-79
2024/02/10 03:00:39;;;;;;;15.18;9.77;;;;;;;10.70;43.99;94136.06;5043402;28;20059;-78
2024/02/10 03:03:04;;;;;;;13.35;7.78;;;;;;;10.75;44.05;94131.97;5043310;28;20436;-79
2024/02/10 03:05:31;;;;;;;12.07;7.18;;;;;;;10.77;43.78;94135.78;5044946;28;20017;-78
2024/02/10 03:07:56;;;;;;;10.32;7.63;;;;;;;10.68;43.99;94127.53;5027203;28;20063;-78
2024/02/10 03:10:22;;;;;;;13.23;7.75;;;;;;;10.65;44.04;94133.94;5044385;28;20029;-78
2024/02/10 03:12:48;;;;;;;13.65;7.57;;;;;;;10.44;44.79;94129.34;5042903;28;20029;-79
2024/02/10 03:15:14;;;;;;;14.73;7.72;;;;;;;10.29;44.73;94124.41;5045921;28;20546;-79
2024/02/10 03:17:40;;;;;;;15.40;7.95;;;;;;;10.16;45.06;94118.25;5043137;28;20107;-78
2024/02/10 03:20:06;;;;;;;14.25;7.85;;;;;;;10.06;45.07;94113.94;5044112;28;20458;-78
2024/02/10 03:22:32;;;;;;;13.05;8.25;;;;;;;9.99;45.14;94120.50;5043458;28;20108;-77
2024/02/10 03:24:58;;;;;;;16.23;7.72;;;;;;;9.93;45.52;94114.06;5043914;28;20035;-77
2024/02/10 03:27:23;;;;;;;17.67;8.57;;;;;;;9.93;45.67;94108.56;5044061;28;20499;-78
2024/02/10 03:29:49;;;;;;;13.82;8.52;;;;;;;9.99;45.46;94114.22;5044471;28;20449;-78
2024/02/10 03:32:15;;;;;;;14.20;8.60;;;;;;;9.94;45.35;94123.81;5044472;28;20017;-77
2024/02/10 03:34:40;;;;;;;16.23;8.75;;;;;;;9.95;45.68;94144.56;5042946;28;20025;-78
2024/02/10 03:37:06;;;;;;;15.80;8.63;;;;;;;9.94;45.70;94151.28;5044244;28;20037;-78
2024/02/10 03:39:32;;;;;;;16.48;8.60;;;;;;;9.73;45.96;94158.34;5026494;28;20115;-78
2024/02/10 03:41:57;;;;;;;13.48;8.45;;;;;;;9.75;46.11;94177.88;5043790;28;20037;-76
2024/02/10 03:44:23;;;;;;;15.95;7.65;;;;;;;9.61;46.46;94175.66;5043448;28;20033;-79
2024/02/10 03:46:50;;;;;;;15.32;7.95;;;;;;;9.41;46.80;94186.97;5042983;28;20632;-79
2024/02/10 03:49:16;;;;;;;13.95;7.90;;;;;;;9.40;46.93;94179.94;5044108;28;20393;-78
2024/02/10 03:51:41;;;;;;;14.50;8.63;;;;;;;9.47;46.95;94187.94;5044147;28;20476;-79
2024/02/10 03:54:09;;;;;;;14.15;7.70;;;;;;;9.45;47.15;94204.06;5027490;28;20033;-77
2024/02/10 03:56:37;;;;;;;13.13;9.45;;;;;;;9.43;46.98;94201.00;5044161;28;20048;-79
2024/02/10 03:59:03;;;;;;;14.40;7.88;;;;;;;9.48;46.95;94207.91;5043672;28;20483;-79
2024/02/10 04:01:29;;;;;;;14.75;8.23;;;;;;;9.53;47.09;94191.63;5044672;28;20025;-79
2024/02/10 04:03:55;;;;;;;11.32;7.68;;;;;;;9.45;46.98;94184.84;5044863;28;20393;-79
2024/02/10 04:06:23;;;;;;;11.18;7.85;;;;;;;9.40;46.77;94179.94;5045223;28;20032;-79
2024/02/10 04:08:49;;;;;;;17.13;8.02;;;;;;;9.43;46.99;94173.56;5042666;28;20028;-78
2024/02/10 04:11:16;;;;;;;16.98;8.40;;;;;;;9.39;47.14;94174.91;5045203;28;20021;-76
2024/02/10 04:13:42;;;;;;;13.90;7.93;;;;;;;9.50;46.88;94169.81;5043677;28;20025;-78
2024/02/10 04:16:12;;;;;;;13.27;8.68;;;;;;;9.49;46.99;94149.06;5047473;28;20032;-78
2024/02/10 04:18:38;;;;;;;12.73;8.02;;;;;;;9.41;47.05;94147.81;5046524;28;20024;-79
2024/02/10 04:21:04;;;;;;;12.18;7.68;;;;;;;9.28;47.51;94134.91;5048576;28;20044;-78
2024/02/10 04:23:32;;;;;;;13.48;7.88;;;;;;;9.28;47.03;94143.13;5047271;28;20031;-80
2024/02/10 04:26:01;;;;;;;11.85;8.10;;;;;;;9.42;47.26;94124.66;5046425;28;20518;-78
2024/02/10 04:28:28;;;;;;;12.82;7.53;;;;;;;9.38;47.25;94127.50;5047461;28;20056;-78
2024/02/10 04:30:53;;;;;;;14.40;7.72;;;;;;;9.40;47.27;94119.59;5045905;28;20021;-77
2024/02/10 04:33:19;;;;;;;12.95;8.30;;;;;;;9.28;47.46;94126.69;5046991;28;20492;-78
2024/02/10 04:35:45;;;;;;;13.85;7.43;;;;;;;9.27;47.50;94121.66;5046041;28;20048;-78
2024/02/10 04:38:10;;;;;;;11.25;7.90;;;;;;;9.21;47.71;94126.94;5048097;28;20025;-79
2024/02/10 04:40:36;;;;;;;13.38;8.45;;;;;;;9.08;47.79;94115.28;5046553;28;20116;-78
2024/02/10 04:43:01;;;;;;;14.85;8.70;;;;;;;8.90;48.52;94115.16;5046133;28;20035;-79
2024/02/10 04:45:32;;;;;;;15.00;8.65;;;;;;;8.88;48.47;94120.31;5046832;28;20032;-78
2024/02/10 04:48:01;;;;;;;14.85;8.32;;;;;;;8.90;48.58;94120.66;5046068;28;20065;-79
2024/02/10 04:50:30;;;;;;;12.48;7.95;;;;;;;8.82;48.79;94130.31;5046692;28;20140;-79
2024/02/10 04:52:56;;;;;;;15.00;9.50;;;;;;;8.79;48.98;94142.94;5046881;28;20075;-79
2024/02/10 04:55:23;;;;;;;15.23;9.48;;;;;;;8.69;49.05;94147.59;5046485;28;20025;-77
2024/02/10 04:57:49;;;;;;;20.48;9.40;;;;;;;8.67;49.17;94160.97;5046213;28;20884;-79
2024/02/10 05:00:15;;;;;;;18.63;11.13;;;;;;;8.70;49.00;94149.09;5045827;28;20056;-78
2024/02/10 05:02:48;;;;;;;18.23;9.02;;;;;;;8.57;49.13;94133.94;5029991;28;20111;-79
2024/02/10 05:05:15;;;;;;;16.40;10.13;;;;;;;8.70;49.09;94129.94;5028922;28;20025;-79
2024/02/10 05:07:45;;;;;;;17.00;9.65;;;;;;;8.74;49.32;94157.22;5046143;28;20159;-78
2024/02/10 05:10:14;;;;;;;16.83;9.23;;;;;;;8.71;49.06;94147.88;5045629;28;20025;-79
2024/02/10 05:12:48;;;;;;;20.27;10.70;;;;;;;8.74;49.13;94138.78;5047237;28;20025;-78
2024/02/10 05:15:18;;;;;;;18.58;9.18;;;;;;;8.68;49.28;94143.31;5046320;28;20028;-78
2024/02/10 05:17:43;;;;;;;12.73;8.70;;;;;;;8.71;49.27;94149.88;5045401;28;20028;-77
2024/02/10 05:20:17;;;;;;;13.63;8.38;;;;;;;8.74;48.98;94144.28;5046604;28;20086;-78
2024/02/10 05:22:43;;;;;;;17.15;8.93;;;;;;;8.77;49.21;94151.63;5029269;28;20057;-79
2024/02/10 05:25:10;;;;;;;20.73;8.82;;;;;;;8.74;49.23;94160.72;5045411;28;20527;-77
2024/02/10 05:27:36;;;;;;;15.45;8.18;;;;;;;8.82;48.94;94174.16;5045149;28;20624;-77
2024/02/10 05:30:02;;;;;;;16.05;9.50;;;;;;;8.84;49.00;94160.81;5045792;28;20032;-78
2024/02/10 05:32:28;;;;;;;15.98;9.27;;;;;;;8.83;48.98;94167.47;5045794;28;20075;-79
2024/02/10 05:34:53;;;;;;;17.13;9.05;;;;;;;8.82;49.08;94163.22;5044810;28;20921;-77
2024/02/10 05:37:19;;;;;;;14.85;9.80;;;;;;;8.76;49.14;94172.00;5046056;28;20527;-77
2024/02/10 05:39:44;;;;;;;16.27;9.90;;;;;;;8.75;49.32;94175.19;5046255;28;20032;-77
2024/02/10 05:42:10;;;;;;;13.35;8.65;;;;;;;8.75;49.17;94170.47;5045587;28;20732;-77
2024/02/10 05:44:36;;;;;;;17.00;9.95;;;;;;;8.78;49.03;94179.78;5045900;28;20025;-78
2024/02/10 05:47:02;;;;;;;12.35;8.85;;;;;;;8.74;49.14;94196.34;5045177;28;20029;-79
2024/02/10 05:49:28;;;;;;;14.82;9.55;;;;;;;8.78;49.11;94190.75;5046331;28;20140;-78
2024/02/10 05:51:53;;;;;;;14.93;8.30;;;;;;;8.75;49.40;94184.16;5046442;28;20151;-76
2024/02/10 05:54:19;;;;;;;16.23;8.70;;;;;;;8.84;49.23;94177.25;5047323;28;20104;-76
2024/02/10 05:56:44;;;;;;;15.07;9.10;;;;;;;8.79;49.00;94167.63;5044728;28;20514;-79
2024/02/10 05:59:12;;;;;;;16.75;9.43;;;;;;;8.75;49.40;94194.38;5045854;28;20103;-78
2024/02/10 06:01:37;;;;;;;14.27;9.25;;;;;;;8.70;49.09;94184.72;5044429;28;20021;-78
2024/02/10 06:04:08;;;;;;;14.13;8.90;;;;;;;8.69;49.29;94174.22;5045300;28;20033;-77
2024/02/10 06:06:34;;;;;;;16.20;8.63;;;;;;;8.69;49.50;94187.91;5028969;28;20120;-76
2024/02/10 06:08:59;;;;;;;17.27;8.93;;;;;;;8.66;49.73;94173.13;5046113;28;20032;-78
2024/02/10 06:11:25;;;;;;;13.52;9.32;;;;;;;8.72;49.35;94178.81;5027848;28;20057;-78
2024/02/10 06:13:51;;;;;;;13.50;9.18;;;;;;;8.74;49.39;94173.66;5043543;28;20032;-78
2024/02/10 06:16:17;;;;;;;15.60;9.82;;;;;;;8.80;49.43;94185.59;5028967;28;20471;-79
2024/02/10 06:18:42;;;;;;;15.48;9.35;;;;;;;8.78;49.44;94180.56;5042721;28;20049;-78
2024/02/10 06:21:08;;;;;;;15.48;9.80;;;;;;;8.77;49.43;94176.28;5028031;28;20111;-78
2024/02/10 06:23:34;;;;;;;17.90;9.35;;;;;;;8.76;49.51;94184.94;5044280;28;20076;-78
2024/02/10 06:25:59;;;;;;;20.10;9.50;;;;;;;8.88;49.48;94197.81;5045983;28;20065;-79
2024/02/10 06:28:25;;;;;;;16.92;9.32;;;;;;;8.87;49.42;94176.34;5046119;28;20166;-78
2024/02/10 06:30:54;;;;;;;16.63;9.98;;;;;;;8.94;49.17;94195.28;5045375;28;20100;-78
2024/02/10 06:33:21;;;;;;;14.98;9.95;;;;;;;9.01;49.03;94187.59;5045086;28;20021;-79
2024/02/10 06:35:51;;;;;;;17.58;10.48;;;;;;;9.08;49.01;94205.00;5043549;28;20033;-79
2024/02/10 06:38:17;;;;;;;19.10;9.52;;;;;;;9.07;49.05;94198.00;5027711;28;20557;-80
2024/02/10 06:40:42;;;;;;;18.08;9.13;;;;;;;9.03;49.06;94192.63;5043751;28;20032;-79
2024/02/10 06:43:12;;;;;;;16.55;9.35;;;;;;;9.05;48.86;94188.22;5044392;28;20028;-78
2024/02/10 06:45:39;;;;;;;15.85;9.27;;;;;;;9.12;49.05;94203.69;5045262;28;20024;-79
2024/02/10 06:48:05;;;;;;;16.00;8.98;;;;;;;9.23;48.89;94208.78;5045473;28;20044;-79
2024/02/10 06:50:31;;;;;;;17.85;9.15;;;;;;;9.25;48.92;94206.38;5044641;28;20051;-79
2024/02/10 06:53:00;;;;;;;17.27;10.07;;;;;;;9.37;48.52;94210.25;5044559;28;20499;-78
2024/02/10 06:55:29;;;;;;;21.73;11.45;;;;;;;9.41;48.52;94208.16;5044899;28;20025;-80
2024/02/10 06:57:57;;;;;;;20.65;10.63;;;;;;;9.47;48.42;94211.88;5043540;28;20428;-78
2024/02/10 07:00:23;;;;;;;19.10;11.88;;;;;;;9.55;48.24;94207.63;5045779;28;20203;-78
2024/02/10 07:02:49;;;;;;;21.42;12.93;;;;;;;9.62;47.90;94209.34;5045349;28;20107;-79
2024/02/10 07:05:16;;;;;;;15.45;11.55;;;;;;;9.61;47.95;94203.09;5027342;28;20037;-78
2024/02/10 07:07:48;;;;;;;18.85;11.55;;;;;;;9.74;47.79;94206.53;5044195;28;20094;-78
2024/02/10 07:10:19;;;;;;;22.92;14.35;;;;;;;9.85;47.49;94206.88;5043401;28;20025;-79
2024/02/10 07:12:46;;;;;;;20.95;13.57;;;;;;;9.84;47.42;94199.88;5027503;28;20033;-78
2024/02/10 07:15:14;;;;;;;26.67;14.45;;;;;;;9.98;47.52;94206.06;5044951;28;20028;-79
2024/02/10 07:17:43;;;;;;;24.33;13.93;;;;;;;10.14;47.08;94188.56;5043950;28;20036;-78
2024/02/10 07:20:21;;;;;;;23.63;14.65;;;;;;;10.29;46.69;94193.09;5043941;28;20403;-79
2024/02/10 07:22:49;;;;;;;25.45;13.80;;;;;;;10.37;46.60;94188.06;5044633;28;20029;-79
2024/02/10 07:25:18;;;;;;;22.35;11.98;;;;;;;10.41;46.37;94182.44;5044674;28;20029;-79
2024/02/10 07:27:46;;;;;;;15.73;9.95;;;;;;;10.60;46.01;94192.25;5043233;28;20112;-78
2024/02/10 07:30:13;;;;;;;15.63;9.90;;;;;;;10.72;45.72;94202.34;5044185;28;20032;-79
2024/02/10 07:32:38;;;;;;;15.82;10.07;;;;;;;10.80;45.33;94208.34;5043295;28;20025;-78
2024/02/10 07:35:04;;;;;;;31.17;13.02;;;;;;;10.94;45.24;94193.22;5045054;28;20391;-78
2024/02/10 07:37:30;;;;;;;21.75;10.80;;;;;;;11.06;45.23;94206.06;5043778;28;20025;-78
2024/02/10 07:39:56;;;;;;;17.42;11.57;;;;;;;11.08;44.73;94195.38;5044662;28;20048;-78
2024/02/10 07:42:22;;;;;;;17.50;10.98;;;;;;;11.24;44.83;94197.84;5044440;28;20029;-78
2024/02/10 07:44:49;;;;;;;22.02;11.20;;;;;;;11.33;44.58;94194.31;5042723;28;20021;-79
2024/02/10 07:47:19;;;;;;;17.55;11.38;;;;;;;11.44;44.26;94192.63;5045418;28;20097;-78
2024/02/10 07:49:48;;;;;;;15.43;10.85;;;;;;;11.51;44.25;94177.78;5046266;28;20431;-78
2024/02/10 07:52:14;;;;;;;15.82;10.00;;;;;;;11.60;43.95;94172.25;5046350;28;20025;-80
2024/02/10 07:54:41;;;;;;;18.83;11.15;;;;;;;11.61;43.77;94182.03;5046899;28;20040;-80
2024/02/10 07:57:11;;;;;;;20.48;12.43;;;;;;;11.64;43.88;94185.84;5047814;28;20032;-82
2024/02/10 07:59:38;;;;;;;21.67;11.48;;;;;;;11.76;43.38;94187.69;5048299;28;20032;-78
2024/02/10 08:02:04;;;;;;;19.35;11.57;;;;;;;11.82;43.20;94205.13;5048099;28;20031;-79
2024/02/10 08:04:30;;;;;;;20.10;12.02;;;;;;;11.93;45.43;94188.91;5046227;28;20029;-80
2024/02/10 08:06:55;;;;;;;16.10;11.57;;;;;;;12.02;46.45;94199.09;5048403;28;20028;-80
2024/02/10 08:09:21;;;;;;;19.23;12.65;;;;;;;12.09;45.32;94198.00;5030651;28;20233;-79
2024/02/10 08:11:46;;;;;;;19.08;12.65;;;;;;;12.14;44.11;94197.38;5047969;28;20511;-78
2024/02/10 08:14:17;;;;;;;22.58;13.85;;;;;;;12.25;45.30;94202.41;5046949;28;20017;-75
2024/02/10 08:16:42;;;;;;;27.50;12.63;;;;;;;12.32;44.93;94200.06;5047352;28;20086;-78
2024/02/10 08:19:09;;;;;;;21.75;12.88;;;;;;;12.40;45.13;94203.25;5046746;28;20106;-85
2024/02/10 08:21:35;;;;;;;22.75;12.38;;;;;;;12.45;44.35;94197.88;5031448;28;20031;-78
2024/02/10 08:24:00;;;;;;;22.10;12.93;;;;;;;12.57;43.69;94206.41;5047247;28;20116;-85
2024/02/10 08:26:27;;;;;;;20.73;13.18;;;;;;;12.64;43.21;94203.28;5047548;28;20528;-85
2024/02/10 08:28:57;;;;;;;26.20;13.48;;;;;;;12.68;42.57;94201.13;5046454;28;20472;-81
2024/02/10 08:31:23;;;;;;;27.63;14.32;;;;;;;12.69;41.97;94175.84;5046883;28;20515;-84
2024/02/10 08:33:49;;;;;;;26.95;13.88;;;;;;;12.83;41.65;94193.69;5046985;28;20017;-83
2024/02/10 08:36:16;;;;;;;26.38;13.63;;;;;;;12.94;41.21;94191.16;5046761;28;20717;-83
2024/02/10 08:38:44;;;;;;;25.02;14.15;;;;;;;12.99;40.94;94181.47;5030872;28;20032;-82
2024/02/10 08:41:10;;;;;;;24.33;14.27;;;;;;;13.08;41.01;94195.22;5046108;28;20103;-81
2024/02/10 08:43:36;;;;;;;23.45;13.23;;;;;;;13.20;40.74;94202.47;5030440;28;20490;-76
2024/02/10 08:46:06;;;;;;;26.42;12.57;;;;;;;13.29;40.41;94207.19;5046282;28;20025;-81
2024/02/10 08:48:31;;;;;;;27.67;13.65;;;;;;;13.31;40.38;94206.72;5047142;28;20532;-82
2024/02/10 08:50:56;;;;;;;26.42;14.35;;;;;;;13.36;40.45;94212.34;5046987;28;20081;-85
2024/02/10 08:53:23;;;;;;;23.42;13.65;;;;;;;13.35;40.27;94202.53;5046216;28;20043;-81
2024/02/10 08:55:50;;;;;;;23.13;13.30;;;;;;;13.44;40.57;94210.75;5030655;28;20029;-85
2024/02/10 08:58:16;;;;;;;29.30;14.32;;;;;;;13.48;39.72;94218.84;5029559;28;20471;-84
2024/02/10 09:00:45;;;;;;;28.02;13.55;;;;;;;13.47;39.80;94215.31;5029266;28;20041;-85
2024/02/10 09:03:13;;;;;;;22.20;14.63;;;;;;;13.62;39.67;94207.06;5030766;28;20029;-88
2024/02/10 09:05:39;;;;;;;26.20;14.73;;;;;;;13.75;39.68;94215.06;5029705;28;20056;-85
2024/02/10 09:08:05;;;;;;;22.92;14.43;;;;;;;13.86;39.10;94195.19;5046486;28;20079;-88
2024/02/10 09:10:30;;;;;;;22.80;13.00;;;;;;;13.97;39.09;94204.41;5046266;28;20438;-86
2024/02/10 09:12:56;;;;;;;23.25;11.93;;;;;;;14.08;38.44;94198.31;5046919;28;20032;-80
2024/02/10 09:15:22;;;;;;;23.90;10.85;;;;;;;14.20;38.72;94199.25;5028684;28;20029;-79
2024/02/10 09:17:48;;;;;;;22.27;10.77;;;;;;;14.30;38.74;94195.91;5029551;28;20499;-80
2024/02/10 09:20:14;;;;;;;21.42;11.38;;;;;;;14.73;37.82;94201.09;5045649;28;20025;-81
2024/02/10 09:22:40;;;;;;;17.40;10.45;;;;;;;15.11;37.09;94200.09;5047377;28;20052;-81
2024/02/10 09:25:05;;;;;;;19.80;11.13;;;;;;;15.26;36.42;94206.34;5047094;28;20116;-84
2024/02/10 09:27:31;;;;;;;20.00;11.07;;;;;;;15.54;36.18;94203.91;5047767;28;20029;-79
2024/02/10 09:29:57;;;;;;;24.05;11.15;;;;;;;15.43;36.17;94201.00;5045857;28;20059;-80
2024/02/10 09:32:24;;;;;;;26.00;10.88;;;;;;;15.50;36.19;94214.41;5046045;28;20043;-83
2024/02/10 09:34:52;;;;;;;21.15;11.18;;;;;;;15.47;36.43;94196.00;5029033;28;20029;-81
2024/02/10 09:37:18;;;;;;;19.05;11.27;;;;;;;15.60;36.06;94195.66;5028573;28;20040;-78
2024/02/10 09:39:43;;;;;;;22.67;10.85;;;;;;;15.70;36.21;94197.03;5045409;28;20021;-79
2024/02/10 09:42:09;;;;;;;18.80;10.20;;;;;;;16.00;35.36;94192.03;5044821;28;20021;-84
2024/02/10 09:44:35;;;;;;;21.63;10.18;;;;;;;17.03;34.37;94186.72;5045595;28;20447;-87
2024/02/10 09:47:01;;;;;;;22.27;10.40;;;;;;;16.75;34.47;94187.34;5030268;28;20036;-84
2024/02/10 09:49:28;;;;;;;16.90;10.32;;;;;;;17.37;33.34;94202.28;5044849;28;20060;-80
2024/02/10 09:51:53;;;;;;;19.88;9.38;;;;;;;18.49;31.92;94190.66;5046131;28;20060;-80
2024/02/10 09:54:19;;;;;;;17.70;9.13;;;;;;;19.37;30.13;94188.97;5044298;28;20489;-81
2024/02/10 09:56:45;;;;;;;17.55;9.68;;;;;;;19.72;29.92;94164.53;5045559;28;20079;-83
2024/02/10 09:59:22;;;;;;;14.85;8.63;;;;;;;19.84;29.26;94166.75;5044604;28;20106;-88
2024/02/10 10:01:50;;;;;;;15.48;8.63;;;;;;;19.51;29.17;94169.69;5046144;28;20036;-81
2024/02/10 10:04:16;;;;;;;21.50;10.27;;;;;;;20.31;28.72;94166.69;5047116;28;20028;-80
2024/02/10 10:06:43;;;;;;;17.42;9.23;;;;;;;21.61;27.03;94175.31;5044588;28;20116;-83
2024/02/10 10:09:12;;;;;;;17.17;9.13;;;;;;;22.15;26.03;94157.56;5029189;28;20412;-82
2024/02/10 10:11:44;;;;;;;30.13;11.05;;;;;;;22.56;24.93;94170.41;5043859;28;20025;-81
2024/02/10 10:14:09;;;;;;;19.15;8.75;;;;;;;23.01;23.97;94175.28;5045248;28;20024;-82
2024/02/10 10:16:35;;;;;;;14.77;9.40;;;;;;;23.27;23.76;94166.84;5043062;28;20025;-82
2024/02/10 10:19:01;;;;;;;13.80;8.45;;;;;;;23.01;24.22;94187.22;5044238;28;20132;-83
2024/02/10 10:21:28;;;;;;;7.18;3.67;;;;;;;22.56;21.10;94167.59;5028551;28;20029;-85
2024/02/10 10:23:57;;;;;;;10.43;4.53;;;;;;;21.76;21.48;94160.13;5044054;28;20025;-77
2024/02/10 10:26:23;;;;;;;10.07;3.58;;;;;;;21.38;21.51;94158.03;5045151;28;20106;-77
2024/02/10 10:28:49;;;;;;;13.90;6.30;;;;;;;21.08;22.67;94149.72;5044801;28;20052;-78
2024/02/10 10:31:18;;;;;;;10.52;4.68;;;;;;;21.00;22.97;94153.66;5044649;28;20099;-78
2024/02/10 10:33:46;;;;;;;10.32;4.80;;;;;;;20.86;22.90;94158.34;5027183;28;20499;-79
2024/02/10 10:36:18;;;;;;;12.35;6.60;;;;;;;20.55;25.09;94156.88;5026235;28;20123;-83
2024/02/10 10:38:46;;;;;;;17.50;8.85;;;;;;;20.34;25.23;94154.47;5044029;28;20577;-80
2024/02/10 10:41:13;;;;;;;14.30;7.57;;;;;;;20.26;29.36;94153.53;5043858;28;20032;-80
2024/02/10 10:43:40;;;;;;;12.70;8.15;;;;;;;20.28;28.49;94155.78;5028505;28;20086;-77
2024/02/10 10:46:06;;;;;;;16.67;9.60;;;;;;;20.13;29.61;94159.72;5043132;28;20020;-80
2024/02/10 10:48:34;;;;;;;18.65;10.15;;;;;;;20.02;27.66;94164.59;5044477;28;20108;-78
2024/02/10 10:51:03;;;;;;;17.17;8.85;;;;;;;19.67;27.87;94145.78;5043435;28;20067;-77
2024/02/10 10:53:30;;;;;;;15.10;9.18;;;;;;;19.45;29.91;94157.81;5044365;28;20804;-79
2024/02/10 10:56:01;;;;;;;26.58;11.25;;;;;;;19.10;28.94;94153.63;5043970;28;20107;-78
2024/02/10 10:58:32;;;;;;;13.90;8.98;;;;;;;18.92;29.40;94159.75;5043729;28;20032;-78
2024/02/10 11:00:59;;;;;;;16.92;9.15;;;;;;;18.84;28.84;94143.56;5044831;28;20024;-81
2024/02/10 11:03:25;;;;;;;18.95;7.93;;;;;;;18.81;27.75;94141.06;5043217;28;20044;-79
2024/02/10 11:05:50;;;;;;;11.52;5.32;;;;;;;18.79;26.10;94140.78;5044076;28;20112;-79
2024/02/10 11:08:26;;;;;;;15.20;6.07;;;;;;;18.81;26.59;94149.41;5044833;28;20029;-77
2024/02/10 11:11:01;;;;;;;10.57;5.78;;;;;;;18.99;25.43;94153.66;5043834;28;20105;-80
2024/02/10 11:13:29;;;;;;;12.00;3.80;;;;;;;18.91;24.89;94149.88;5027435;28;20120;-79
2024/02/10 11:16:03;;;;;;;7.22;4.82;;;;;;;19.17;24.83;94155.88;5026359;28;20129;-77
2024/02/10 11:18:28;;;;;;;6.00;3.50;;;;;;;19.11;23.90;94146.78;5045779;28;20497;-80
2024/02/10 11:21:16;;;;;;;12.25;6.40;;;;;;;19.04;25.15;94150.88;5042916;28;20044;-75
2024/02/10 11:23:41;;;;;;;12.23;5.85;;;;;;;18.89;25.99;94178.25;5046173;28;20021;-77
2024/02/10 11:26:09;;;;;;;11.90;4.85;;;;;;;18.74;26.41;94161.03;5048960;28;20036;-77